Time;durP1;ratioP1;P1;durP2;ratioP2;P2;SDS_P1;SDS_P2;PMS_P1;PMS_P2;Temp;Humidity;BMP_temperature;BMP_pressure;BME280_temperature;BME280_humidity;BME280_pressure;Samples;Min_cycle;Max_cycle;Signal;HPM_P1;HPM_P2
2022/04/24 00:00:06;;;;;;;8.77;5.63;;;;;;;;;;4979492;28;20022;-70
2022/04/24 00:02:32;;;;;;;8.20;5.90;;;;;;;;;;4982734;28;20734;-68
2022/04/24 00:04:58;;;;;;;7.55;5.78;;;;;;;;;;4982303;28;20039;-70
2022/04/24 00:07:23;;;;;;;8.32;6.13;;;;;;;;;;4982820;28;20092;-70
2022/04/24 00:09:48;;;;;;;7.88;6.13;;;;;;;;;;4982079;28;20054;-70
2022/04/24 00:12:15;;;;;;;7.87;6.33;;;;;;;;;;4979293;28;20251;-70
2022/04/24 00:14:41;;;;;;;7.88;6.00;;;;;;;;;;4976577;28;20344;-69
2022/04/24 00:17:06;;;;;;;7.50;5.57;;;;;;;;;;4992420;28;20065;-69
2022/04/24 00:19:32;;;;;;;7.32;6.00;;;;;;;;;;4984262;28;20030;-69
2022/04/24 00:21:57;;;;;;;8.03;6.30;;;;;;;;;;4976202;28;20038;-69
2022/04/24 00:24:24;;;;;;;8.13;5.93;;;;;;;;;;4974672;28;20821;-69
2022/04/24 00:26:49;;;;;;;7.05;5.88;;;;;;;;;;4983593;28;20385;-70
2022/04/24 00:29:15;;;;;;;7.45;5.95;;;;;;;;;;4979115;28;20057;-69
2022/04/24 00:31:41;;;;;;;8.70;6.13;;;;;;;;;;4973912;28;20093;-69
2022/04/24 00:34:06;;;;;;;8.27;5.82;;;;;;;;;;4980057;28;20039;-70
2022/04/24 00:36:31;;;;;;;10.83;6.20;;;;;;;;;;4977745;28;20026;-69
2022/04/24 00:38:56;;;;;;;7.90;6.63;;;;;;;;;;4979057;28;20582;-69
2022/04/24 00:41:21;;;;;;;8.80;6.30;;;;;;;;;;4989416;28;20030;-69
2022/04/24 00:43:52;;;;;;;10.25;6.07;;;;;;;;;;4977923;28;20283;-70
2022/04/24 00:46:35;;;;;;;9.65;7.00;;;;;;;;;;4982167;28;20033;-69
2022/04/24 00:49:01;;;;;;;8.10;6.32;;;;;;;;;;4977901;28;20496;-69
2022/04/24 00:51:26;;;;;;;8.03;6.93;;;;;;;;;;4974077;28;20057;-70
2022/04/24 00:53:52;;;;;;;10.85;7.35;;;;;;;;;;4991914;28;20276;-69
2022/04/24 00:56:18;;;;;;;12.32;7.40;;;;;;;;;;4974835;28;20465;-70
2022/04/24 00:58:43;;;;;;;8.52;6.40;;;;;;;;;;4977686;28;20054;-70
2022/04/24 01:01:09;;;;;;;10.70;7.20;;;;;;;;;;4977091;28;20455;-70
2022/04/24 01:03:34;;;;;;;12.32;6.72;;;;;;;;;;4983150;28;20260;-69
2022/04/24 01:05:59;;;;;;;9.70;6.75;;;;;;;;;;4986414;28;20026;-70
2022/04/24 01:08:24;;;;;;;10.13;6.87;;;;;;;;;;4980050;28;20096;-69
2022/04/24 01:10:49;;;;;;;8.63;7.05;;;;;;;;;;4979051;28;20304;-70
2022/04/24 01:13:15;;;;;;;8.63;7.00;;;;;;;;;;4976785;28;20609;-70
2022/04/24 01:15:40;;;;;;;9.70;6.93;;;;;;;;;;4981577;28;20026;-69
2022/04/24 01:18:06;;;;;;;10.32;7.07;;;;;;;;;;4982685;28;20414;-70
2022/04/24 01:20:31;;;;;;;8.30;6.55;;;;;;;;;;4983132;28;20276;-69
2022/04/24 01:22:56;;;;;;;9.15;7.22;;;;;;;;;;4981289;28;20029;-70
2022/04/24 01:25:21;;;;;;;8.95;7.68;;;;;;;;;;4995595;28;20045;-70
2022/04/24 01:27:46;;;;;;;10.15;7.47;;;;;;;;;;4977948;28;20485;-71
2022/04/24 01:30:12;;;;;;;11.07;7.22;;;;;;;;;;4980426;28;20041;-71
2022/04/24 01:32:39;;;;;;;10.73;7.13;;;;;;;;;;4983895;28;20329;-70
2022/04/24 01:35:04;;;;;;;11.73;7.25;;;;;;;;;;4986012;28;20268;-70
2022/04/24 01:37:29;;;;;;;12.38;8.20;;;;;;;;;;4979425;28;20331;-70
2022/04/24 01:39:55;;;;;;;8.07;7.10;;;;;;;;;;4983255;28;20026;-70
2022/04/24 01:42:20;;;;;;;11.27;7.70;;;;;;;;;;4978547;28;20092;-70
2022/04/24 01:44:45;;;;;;;9.15;7.07;;;;;;;;;;4979460;28;20034;-70
2022/04/24 01:47:10;;;;;;;11.38;7.85;;;;;;;;;;4980073;28;20037;-69
2022/04/24 01:49:36;;;;;;;10.68;7.95;;;;;;;;;;4978943;28;20282;-70
2022/04/24 01:52:01;;;;;;;10.10;7.80;;;;;;;;;;4981184;28;20812;-70
2022/04/24 01:54:26;;;;;;;11.13;7.90;;;;;;;;;;4980965;28;20468;-70
2022/04/24 01:56:51;;;;;;;15.13;8.80;;;;;;;;;;4978662;28;20351;-70
2022/04/24 01:59:16;;;;;;;12.03;8.00;;;;;;;;;;4981442;28;20291;-70
2022/04/24 02:01:41;;;;;;;11.95;7.63;;;;;;;;;;4977966;28;20282;-70
2022/04/24 02:04:06;;;;;;;12.38;8.75;;;;;;;;;;4980975;28;20058;-69
2022/04/24 02:06:32;;;;;;;12.03;8.23;;;;;;;;;;4982811;28;20539;-70
2022/04/24 02:08:57;;;;;;;13.43;9.05;;;;;;;;;;4980264;28;20276;-71
2022/04/24 02:11:22;;;;;;;11.00;8.23;;;;;;;;;;4980207;28;20065;-70
2022/04/24 02:13:47;;;;;;;12.45;7.88;;;;;;;;;;4981316;28;20276;-70
2022/04/24 02:16:12;;;;;;;15.90;8.98;;;;;;;;;;4982138;28;20146;-71
2022/04/24 02:18:37;;;;;;;10.83;7.83;;;;;;;;;;4976545;28;20026;-70
2022/04/24 02:21:03;;;;;;;13.68;8.77;;;;;;;;;;4985737;28;20764;-71
2022/04/24 02:23:28;;;;;;;14.60;9.38;;;;;;;;;;4979093;28;20172;-70
2022/04/24 02:25:53;;;;;;;10.53;8.70;;;;;;;;;;4986467;28;20276;-70
2022/04/24 02:28:18;;;;;;;11.53;8.40;;;;;;;;;;4985513;28;20323;-71
2022/04/24 02:30:44;;;;;;;12.88;9.63;;;;;;;;;;4981891;28;20280;-71
2022/04/24 02:33:09;;;;;;;12.52;9.32;;;;;;;;;;4981094;28;20026;-70
2022/04/24 02:35:34;;;;;;;13.02;9.13;;;;;;;;;;4974997;28;20030;-70
2022/04/24 02:37:59;;;;;;;12.40;9.27;;;;;;;;;;4978179;28;20034;-69
2022/04/24 02:40:27;;;;;;;11.70;9.00;;;;;;;;;;4979827;28;20275;-69
2022/04/24 02:42:52;;;;;;;10.95;8.02;;;;;;;;;;4977711;28;20035;-69
2022/04/24 02:45:18;;;;;;;11.35;8.43;;;;;;;;;;4980882;28;20022;-70
2022/04/24 02:47:43;;;;;;;12.50;9.23;;;;;;;;;;4980312;28;20109;-69
2022/04/24 02:50:08;;;;;;;11.30;8.80;;;;;;;;;;4981399;28;20026;-69
2022/04/24 02:52:44;;;;;;;17.17;9.90;;;;;;;;;;4975642;28;20279;-68
2022/04/24 02:55:09;;;;;;;15.13;9.45;;;;;;;;;;4986338;28;20657;-69
2022/04/24 02:57:36;;;;;;;14.10;10.07;;;;;;;;;;4979440;28;20031;-69
2022/04/24 03:00:03;;;;;;;13.68;9.65;;;;;;;;;;4980310;28;20777;-69
2022/04/24 03:02:28;;;;;;;15.80;8.43;;;;;;;;;;4979819;28;20030;-69
2022/04/24 03:04:53;;;;;;;14.35;9.80;;;;;;;;;;4979503;28;20030;-69
2022/04/24 03:07:18;;;;;;;15.93;10.30;;;;;;;;;;4980495;28;20790;-70
2022/04/24 03:09:43;;;;;;;14.82;9.38;;;;;;;;;;4977393;28;20272;-70
2022/04/24 03:12:09;;;;;;;14.52;9.57;;;;;;;;;;4979498;28;20034;-69
2022/04/24 03:14:34;;;;;;;16.30;9.23;;;;;;;;;;4981829;28;20409;-70
2022/04/24 03:16:59;;;;;;;13.85;10.02;;;;;;;;;;4998034;28;20104;-70
2022/04/24 03:19:24;;;;;;;13.95;9.05;;;;;;;;;;4981524;28;20276;-70
2022/04/24 03:21:49;;;;;;;15.93;8.40;;;;;;;;;;4982327;28;20129;-70
2022/04/24 03:24:14;;;;;;;17.15;10.10;;;;;;;;;;4980958;28;20018;-69
2022/04/24 03:26:40;;;;;;;14.93;8.82;;;;;;;;;;4977012;28;20276;-70
2022/04/24 03:29:05;;;;;;;12.10;9.00;;;;;;;;;;4980622;28;20790;-70
2022/04/24 03:31:30;;;;;;;20.55;10.82;;;;;;;;;;4983621;28;20283;-69
2022/04/24 03:33:55;;;;;;;17.33;9.77;;;;;;;;;;4984451;28;20412;-68
2022/04/24 03:36:20;;;;;;;14.13;9.27;;;;;;;;;;4980045;28;20030;-70
2022/04/24 03:38:46;;;;;;;14.65;9.25;;;;;;;;;;4978540;28;20034;-69
2022/04/24 03:41:11;;;;;;;13.20;9.23;;;;;;;;;;4976844;28;20397;-69
2022/04/24 03:43:36;;;;;;;13.27;9.00;;;;;;;;;;4979703;28;20048;-70
2022/04/24 03:46:01;;;;;;;15.70;9.90;;;;;;;;;;4972692;28;20303;-69
2022/04/24 03:48:26;;;;;;;12.02;9.32;;;;;;;;;;4980549;28;20268;-70
2022/04/24 03:50:52;;;;;;;14.20;9.25;;;;;;;;;;4979806;28;20121;-70
2022/04/24 03:53:18;;;;;;;13.82;9.40;;;;;;;;;;4974918;28;20634;-70
2022/04/24 03:55:43;;;;;;;19.45;9.45;;;;;;;;;;4986961;28;20030;-69
2022/04/24 03:58:08;;;;;;;16.48;9.63;;;;;;;;;;4977737;28;20472;-69
2022/04/24 04:00:34;;;;;;;13.95;8.80;;;;;;;;;;4975554;28;20034;-70
2022/04/24 04:02:59;;;;;;;13.18;9.23;;;;;;;;;;4980527;28;20268;-70
2022/04/24 04:05:24;;;;;;;12.80;9.20;;;;;;;;;;4985520;28;20429;-69
2022/04/24 04:07:49;;;;;;;13.52;9.00;;;;;;;;;;4975944;28;20264;-69
2022/04/24 04:10:14;;;;;;;15.57;10.63;;;;;;;;;;4977987;28;20100;-70
2022/04/24 04:12:39;;;;;;;13.73;9.30;;;;;;;;;;4978066;28;20296;-69
2022/04/24 04:15:05;;;;;;;18.27;10.65;;;;;;;;;;4980373;28;20275;-70
2022/04/24 04:17:32;;;;;;;14.60;9.35;;;;;;;;;;4979425;28;20026;-68
2022/04/24 04:19:57;;;;;;;13.57;9.60;;;;;;;;;;4975871;28;20030;-71
2022/04/24 04:22:22;;;;;;;14.03;8.20;;;;;;;;;;4975732;28;20476;-69
2022/04/24 04:24:47;;;;;;;12.67;8.93;;;;;;;;;;4979982;28;20272;-69
2022/04/24 04:27:12;;;;;;;16.45;9.70;;;;;;;;;;4973894;28;20747;-70
2022/04/24 04:29:37;;;;;;;14.77;10.95;;;;;;;;;;4975434;28;20283;-68
2022/04/24 04:32:03;;;;;;;19.00;9.90;;;;;;;;;;4979809;28;20287;-69
2022/04/24 04:34:28;;;;;;;14.68;9.00;;;;;;;;;;4981355;28;20628;-69
2022/04/24 04:36:53;;;;;;;14.33;9.47;;;;;;;;;;4982155;28;20030;-68
2022/04/24 04:39:20;;;;;;;16.10;9.15;;;;;;;;;;4982965;28;20834;-69
2022/04/24 04:41:45;;;;;;;14.63;9.38;;;;;;;;;;4984543;28;20396;-70
2022/04/24 04:44:10;;;;;;;19.40;9.20;;;;;;;;;;4981642;28;20103;-70
2022/04/24 04:46:35;;;;;;;14.90;8.45;;;;;;;;;;4980847;28;20420;-70
2022/04/24 04:49:00;;;;;;;15.47;9.93;;;;;;;;;;4979435;28;20034;-70
2022/04/24 04:51:26;;;;;;;12.80;9.17;;;;;;;;;;4980454;28;20761;-70
2022/04/24 04:53:54;;;;;;;13.50;9.10;;;;;;;;;;4983811;28;20409;-70
2022/04/24 04:56:19;;;;;;;15.38;8.80;;;;;;;;;;4985283;28;20039;-70
2022/04/24 04:58:45;;;;;;;12.83;8.43;;;;;;;;;;4985459;28;20031;-70
2022/04/24 05:01:10;;;;;;;12.65;6.47;;;;;;;;;;4984026;28;20845;-70
2022/04/24 05:03:35;;;;;;;11.20;8.30;;;;;;;;;;4982796;28;20042;-70
2022/04/24 05:06:00;;;;;;;12.90;8.97;;;;;;;;;;4979073;28;20303;-70
2022/04/24 05:08:25;;;;;;;16.70;9.85;;;;;;;;;;4981156;28;20330;-69
2022/04/24 05:10:51;;;;;;;12.65;7.72;;;;;;;;;;4997344;28;20030;-70
2022/04/24 05:13:16;;;;;;;12.57;8.93;;;;;;;;;;5000514;28;20034;-70
2022/04/24 05:15:41;;;;;;;12.77;8.45;;;;;;;;;;4980597;28;20284;-71
2022/04/24 05:18:06;;;;;;;11.00;7.53;;;;;;;;;;4980036;28;20108;-70
2022/04/24 05:20:31;;;;;;;12.73;8.65;;;;;;;;;;4979609;28;20363;-69
2022/04/24 05:23:04;;;;;;;13.27;8.17;;;;;;;;;;4983278;28;20018;-70
2022/04/24 05:25:29;;;;;;;14.20;8.52;;;;;;;;;;4980150;28;20626;-69
2022/04/24 05:27:54;;;;;;;11.35;7.32;;;;;;;;;;4978896;28;20034;-70
2022/04/24 05:30:20;;;;;;;10.93;8.07;;;;;;;;;;4982636;28;20387;-69
2022/04/24 05:32:50;;;;;;;18.60;9.03;;;;;;;;;;4981470;28;20268;-70
2022/04/24 05:35:15;;;;;;;14.80;8.00;;;;;;;;;;4983593;28;20745;-70
2022/04/24 05:37:40;;;;;;;13.65;8.68;;;;;;;;;;4978215;28;20477;-69
2022/04/24 05:40:06;;;;;;;15.10;8.80;;;;;;;;;;4980834;28;20354;-70
2022/04/24 05:42:31;;;;;;;10.63;7.70;;;;;;;;;;4975004;28;20145;-70
2022/04/24 05:45:04;;;;;;;12.55;7.85;;;;;;;;;;4982744;28;20026;-70
2022/04/24 05:47:29;;;;;;;10.55;7.05;;;;;;;;;;4982746;28;20049;-68
2022/04/24 05:49:55;;;;;;;12.63;6.95;;;;;;;;;;4982886;28;20137;-70
2022/04/24 05:52:20;;;;;;;12.37;7.93;;;;;;;;;;4981930;28;20052;-70
2022/04/24 05:54:45;;;;;;;15.02;8.30;;;;;;;;;;4983521;28;20778;-69
2022/04/24 05:57:10;;;;;;;11.55;7.78;;;;;;;;;;4979438;28;20300;-69
2022/04/24 05:59:36;;;;;;;16.27;8.68;;;;;;;;;;4984420;28;20294;-69
2022/04/24 06:02:01;;;;;;;10.65;8.95;;;;;;;;;;4982325;28;20354;-70
2022/04/24 06:04:27;;;;;;;12.70;8.02;;;;;;;;;;4983257;28;20406;-69
2022/04/24 06:06:52;;;;;;;12.00;8.55;;;;;;;;;;4980386;28;20026;-67
2022/04/24 06:09:18;;;;;;;11.97;7.93;;;;;;;;;;4981524;28;20033;-68
2022/04/24 06:11:43;;;;;;;16.70;8.43;;;;;;;;;;4979986;28;20567;-69
2022/04/24 06:14:08;;;;;;;19.15;8.07;;;;;;;;;;4981337;28;20478;-69
2022/04/24 06:16:34;;;;;;;12.50;8.07;;;;;;;;;;4981856;28;20031;-70
2022/04/24 06:18:59;;;;;;;13.13;8.63;;;;;;;;;;4978535;28;20030;-68
2022/04/24 06:21:24;;;;;;;15.57;8.45;;;;;;;;;;4995636;28;20295;-69
2022/04/24 06:23:49;;;;;;;13.27;8.15;;;;;;;;;;4983613;28;20480;-69
2022/04/24 06:26:14;;;;;;;13.77;8.47;;;;;;;;;;4982397;28;20109;-69
2022/04/24 06:28:39;;;;;;;15.10;8.20;;;;;;;;;;4984768;28;20275;-69
2022/04/24 06:31:04;;;;;;;14.52;8.48;;;;;;;;;;4986799;28;20041;-69
2022/04/24 06:33:30;;;;;;;12.23;8.32;;;;;;;;;;4985284;28;20109;-70
2022/04/24 06:35:55;;;;;;;8.88;7.07;;;;;;;;;;4979635;28;20910;-69
2022/04/24 06:38:22;;;;;;;11.95;7.80;;;;;;;;;;4976688;28;20109;-69
2022/04/24 06:40:47;;;;;;;14.23;7.47;;;;;;;;;;4980751;28;20023;-68
2022/04/24 06:43:12;;;;;;;14.43;8.30;;;;;;;;;;4982122;28;20331;-68
2022/04/24 06:45:41;;;;;;;17.08;9.15;;;;;;;;;;4981454;28;20034;-69
2022/04/24 06:48:09;;;;;;;11.40;8.40;;;;;;;;;;4979857;28;20046;-68
2022/04/24 06:50:35;;;;;;;13.88;8.05;;;;;;;;;;4982402;28;20505;-69
2022/04/24 06:53:01;;;;;;;12.98;8.40;;;;;;;;;;4977769;28;20482;-70
2022/04/24 06:55:31;;;;;;;12.50;8.18;;;;;;;;;;4975110;28;20113;-69
2022/04/24 06:57:56;;;;;;;9.98;7.32;;;;;;;;;;4975892;28;20037;-70
2022/04/24 07:00:23;;;;;;;12.00;8.05;;;;;;;;;;4977508;28;20030;-68
2022/04/24 07:02:48;;;;;;;11.85;7.88;;;;;;;;;;4980629;28;20252;-69
2022/04/24 07:05:14;;;;;;;14.45;7.43;;;;;;;;;;4976151;28;20022;-68
2022/04/24 07:07:39;;;;;;;11.35;8.02;;;;;;;;;;4976261;28;20042;-69
2022/04/24 07:10:05;;;;;;;10.70;8.07;;;;;;;;;;4977469;28;20018;-69
2022/04/24 07:12:30;;;;;;;15.25;7.43;;;;;;;;;;4980662;28;20023;-68
2022/04/24 07:14:55;;;;;;;11.50;8.00;;;;;;;;;;4980165;28;20594;-69
2022/04/24 07:17:21;;;;;;;10.48;7.85;;;;;;;;;;4982490;28;20038;-69
2022/04/24 07:19:47;;;;;;;10.85;7.68;;;;;;;;;;4976545;28;20106;-69
2022/04/24 07:22:12;;;;;;;12.75;8.25;;;;;;;;;;4974513;28;20057;-69
2022/04/24 07:24:37;;;;;;;11.40;8.20;;;;;;;;;;4977549;28;20036;-68
2022/04/24 07:27:02;;;;;;;9.65;8.10;;;;;;;;;;4974736;28;21107;-67
2022/04/24 07:29:27;;;;;;;12.15;8.20;;;;;;;;;;4982003;28;20030;-69
2022/04/24 07:31:53;;;;;;;14.43;9.77;;;;;;;;;;4982359;28;20030;-69
2022/04/24 07:34:18;;;;;;;11.27;7.57;;;;;;;;;;4979777;28;20080;-68
2022/04/24 07:36:43;;;;;;;10.27;8.23;;;;;;;;;;4984101;28;20022;-70
2022/04/24 07:39:09;;;;;;;10.70;8.47;;;;;;;;;;4978395;28;20018;-71
2022/04/24 07:41:34;;;;;;;11.00;8.48;;;;;;;;;;4977382;28;20566;-69
2022/04/24 07:44:00;;;;;;;12.48;8.55;;;;;;;;;;4977068;28;20027;-68
2022/04/24 07:46:25;;;;;;;13.43;8.70;;;;;;;;;;4977951;28;20034;-67
2022/04/24 07:48:50;;;;;;;15.20;8.90;;;;;;;;;;4979922;28;20043;-69
2022/04/24 07:51:15;;;;;;;13.68;8.18;;;;;;;;;;4974150;28;20728;-70
2022/04/24 07:53:42;;;;;;;11.83;8.73;;;;;;;;;;4977737;28;20038;-69
2022/04/24 07:56:08;;;;;;;11.32;9.00;;;;;;;;;;4979799;28;20379;-68
2022/04/24 07:58:33;;;;;;;12.98;8.75;;;;;;;;;;4984124;28;20105;-70
2022/04/24 08:00:58;;;;;;;12.67;8.80;;;;;;;;;;4981689;28;21139;-68
2022/04/24 08:03:23;;;;;;;14.90;9.70;;;;;;;;;;4983405;28;20025;-69
2022/04/24 08:05:50;;;;;;;11.97;8.63;;;;;;;;;;4983329;28;20906;-70
2022/04/24 08:08:19;;;;;;;11.73;8.65;;;;;;;;;;4984830;28;20272;-69
2022/04/24 08:10:48;;;;;;;11.85;8.90;;;;;;;;;;4980433;28;20034;-68
2022/04/24 08:13:13;;;;;;;12.73;8.57;;;;;;;;;;4980434;28;20061;-70
2022/04/24 08:15:38;;;;;;;17.23;9.43;;;;;;;;;;4992216;28;20037;-70
2022/04/24 08:18:04;;;;;;;13.35;7.97;;;;;;;;;;4983663;28;20497;-71
2022/04/24 08:20:30;;;;;;;14.63;9.20;;;;;;;;;;4979062;28;20055;-69
2022/04/24 08:22:57;;;;;;;12.15;9.30;;;;;;;;;;4983835;28;20062;-71
2022/04/24 08:25:24;;;;;;;14.25;9.50;;;;;;;;;;4973473;28;20026;-70
2022/04/24 08:27:50;;;;;;;14.27;9.20;;;;;;;;;;4973889;28;20058;-71
2022/04/24 08:30:15;;;;;;;14.40;9.05;;;;;;;;;;4979716;28;20030;-70
2022/04/24 08:32:41;;;;;;;14.32;9.18;;;;;;;;;;4983027;28;20048;-69
2022/04/24 08:35:08;;;;;;;11.57;9.45;;;;;;;;;;4986089;28;20484;-69
2022/04/24 08:37:33;;;;;;;15.20;9.25;;;;;;;;;;4990794;28;20065;-70
2022/04/24 08:39:58;;;;;;;14.55;9.20;;;;;;;;;;4984621;28;20548;-70
2022/04/24 08:42:24;;;;;;;12.73;10.02;;;;;;;;;;4979186;28;20025;-69
2022/04/24 08:44:50;;;;;;;16.45;10.48;;;;;;;;;;4978477;28;20030;-70
2022/04/24 08:47:15;;;;;;;14.15;9.68;;;;;;;;;;4970158;28;20026;-70
2022/04/24 08:49:41;;;;;;;14.88;9.48;;;;;;;;;;4982501;28;20110;-71
2022/04/24 08:52:08;;;;;;;14.80;8.98;;;;;;;;;;4986323;28;20027;-70
2022/04/24 08:54:33;;;;;;;13.07;9.88;;;;;;;;;;4980030;28;20126;-70
2022/04/24 08:56:59;;;;;;;14.35;8.93;;;;;;;;;;4982243;28;20104;-71
2022/04/24 08:59:24;;;;;;;15.80;9.57;;;;;;;;;;4981902;28;20445;-70
2022/04/24 09:01:50;;;;;;;13.48;9.88;;;;;;;;;;4985076;28;20432;-69
2022/04/24 09:04:15;;;;;;;18.05;10.13;;;;;;;;;;4974276;28;20048;-70
2022/04/24 09:06:41;;;;;;;13.75;9.82;;;;;;;;;;4980642;28;20046;-69
2022/04/24 09:09:07;;;;;;;10.77;8.07;;;;;;;;;;4979913;28;20030;-69
2022/04/24 09:11:33;;;;;;;13.20;9.07;;;;;;;;;;4973890;28;20034;-70
2022/04/24 09:14:18;;;;;;;12.85;9.48;;;;;;;;;;4977057;28;20276;-69
2022/04/24 09:16:47;;;;;;;14.68;9.70;;;;;;;;;;4980109;28;20026;-69
2022/04/24 09:19:19;;;;;;;13.85;9.27;;;;;;;;;;4980107;28;20018;-70
2022/04/24 09:21:45;;;;;;;13.05;9.65;;;;;;;;;;4982634;28;20030;-69
2022/04/24 09:24:10;;;;;;;16.67;10.50;;;;;;;;;;4979415;28;20105;-70
2022/04/24 09:26:35;;;;;;;15.07;10.37;;;;;;;;;;4979972;28;20030;-72
2022/04/24 09:29:00;;;;;;;14.95;10.02;;;;;;;;;;4978835;28;20027;-70
2022/04/24 09:31:29;;;;;;;13.52;10.00;;;;;;;;;;4980402;28;20076;-70
2022/04/24 09:33:54;;;;;;;12.55;9.18;;;;;;;;;;4977813;28;20366;-71
2022/04/24 09:36:23;;;;;;;11.98;9.45;;;;;;;;;;4980434;28;20045;-70
2022/04/24 09:38:49;;;;;;;11.93;10.55;;;;;;;;;;4986446;28;20069;-70
2022/04/24 09:41:15;;;;;;;16.67;10.07;;;;;;;;;;4982830;28;20027;-70
2022/04/24 09:43:40;;;;;;;11.30;9.90;;;;;;;;;;4981753;28;20289;-71
2022/04/24 09:46:06;;;;;;;14.25;10.00;;;;;;;;;;4978231;28;20027;-72
2022/04/24 09:48:31;;;;;;;15.33;9.90;;;;;;;;;;4987491;28;20114;-71
2022/04/24 09:50:56;;;;;;;14.03;10.63;;;;;;;;;;4980966;28;20283;-73
2022/04/24 09:53:22;;;;;;;14.48;9.73;;;;;;;;;;4983683;28;20045;-71
2022/04/24 09:55:49;;;;;;;14.65;9.85;;;;;;;;;;4979740;28;20140;-75
2022/04/24 09:58:17;;;;;;;13.40;10.10;;;;;;;;;;4977502;28;20035;-73
2022/04/24 10:00:44;;;;;;;13.20;10.95;;;;;;;;;;4981846;28;20326;-72
2022/04/24 10:03:09;;;;;;;13.38;10.02;;;;;;;;;;4977686;28;20026;-71
2022/04/24 10:05:38;;;;;;;15.82;9.60;;;;;;;;;;4980877;28;20486;-71
2022/04/24 10:08:04;;;;;;;14.40;9.65;;;;;;;;;;4979186;28;20545;-70
2022/04/24 10:10:29;;;;;;;16.95;10.57;;;;;;;;;;4980179;28;20138;-69
2022/04/24 10:12:54;;;;;;;17.70;10.35;;;;;;;;;;4982561;28;20112;-70
2022/04/24 10:15:21;;;;;;;14.10;9.88;;;;;;;;;;4979395;28;20054;-70
2022/04/24 10:17:55;;;;;;;11.70;9.85;;;;;;;;;;4981635;28;20117;-69
2022/04/24 10:20:26;;;;;;;15.18;11.02;;;;;;;;;;4980157;28;20026;-70
2022/04/24 10:22:55;;;;;;;13.77;9.52;;;;;;;;;;4981526;28;20022;-69
2022/04/24 10:25:30;;;;;;;16.15;9.73;;;;;;;;;;4996873;28;20365;-70
2022/04/24 10:27:56;;;;;;;13.07;9.95;;;;;;;;;;4981906;28;20053;-70
2022/04/24 10:30:23;;;;;;;13.70;10.23;;;;;;;;;;4983306;28;20369;-69
2022/04/24 10:32:49;;;;;;;11.90;9.82;;;;;;;;;;4981155;28;20285;-69
2022/04/24 10:35:18;;;;;;;12.13;10.43;;;;;;;;;;4974820;28;20022;-71
2022/04/24 10:40:20;;;;;;;14.95;10.43;;;;;;;;;;5199311;23;20052;-69
2022/04/24 10:42:45;;;;;;;14.38;9.77;;;;;;;;;;5025630;28;20117;-69
2022/04/24 10:45:13;;;;;;;11.18;9.98;;;;;;;;;;5025658;28;20056;-69
2022/04/24 10:47:43;;;;;;;11.98;8.52;;;;;;;;;;5009193;28;20116;-73
2022/04/24 10:50:09;;;;;;;13.20;10.38;;;;;;;;;;5026060;28;20014;-72
2022/04/24 10:52:41;;;;;;;15.38;9.20;;;;;;;;;;5024419;28;20026;-74
2022/04/24 10:55:07;;;;;;;16.13;10.23;;;;;;;;;;5020077;28;20132;-75
2022/04/24 10:57:39;;;;;;;14.02;9.43;;;;;;;;;;5023475;28;20084;-73
2022/04/24 11:00:12;;;;;;;14.82;9.77;;;;;;;;;;5026076;28;20059;-74
2022/04/24 11:02:37;;;;;;;13.73;9.27;;;;;;;;;;5023948;28;20017;-72
2022/04/24 11:05:09;;;;;;;18.50;9.60;;;;;;;;;;5005461;28;20025;-74
2022/04/24 11:07:34;;;;;;;14.02;9.80;;;;;;;;;;5026259;28;20024;-72
2022/04/24 11:10:01;;;;;;;12.87;9.83;;;;;;;;;;5024347;28;20033;-74
2022/04/24 11:12:31;;;;;;;11.13;8.68;;;;;;;;;;5020523;28;20037;-73
2022/04/24 11:15:00;;;;;;;12.13;9.15;;;;;;;;;;5023303;28;20037;-74
2022/04/24 11:17:27;;;;;;;12.95;8.02;;;;;;;;;;5023899;28;20029;-74
2022/04/24 11:19:58;;;;;;;10.82;8.38;;;;;;;;;;5019654;28;20029;-73
2022/04/24 11:22:24;;;;;;;13.40;9.48;;;;;;;;;;5021534;28;20430;-74
2022/04/24 11:24:49;;;;;;;9.97;8.13;;;;;;;;;;5024173;28;20075;-75
2022/04/24 11:27:14;;;;;;;11.47;8.83;;;;;;;;;;5020619;28;20980;-73
2022/04/24 11:29:42;;;;;;;12.77;9.02;;;;;;;;;;5023412;28;20663;-73
2022/04/24 11:32:08;;;;;;;9.88;8.00;;;;;;;;;;5023607;28;20113;-73
2022/04/24 11:34:33;;;;;;;15.38;8.75;;;;;;;;;;5024334;28;20048;-72
2022/04/24 11:36:59;;;;;;;9.50;8.23;;;;;;;;;;5022622;28;20107;-73
2022/04/24 11:39:24;;;;;;;13.25;8.40;;;;;;;;;;5021328;28;20116;-72
2022/04/24 11:41:58;;;;;;;9.07;8.00;;;;;;;;;;5021316;28;20025;-72
2022/04/24 11:52:36;;;;;;;12.10;8.60;;;;;;;;;;5016578;28;19928;-68
2022/04/24 11:55:02;;;;;;;9.75;8.00;;;;;;;;;;5025737;28;20029;-69
2022/04/24 11:57:27;;;;;;;9.18;8.07;;;;;;;;;;5025137;28;20480;-68
2022/04/24 11:59:55;;;;;;;8.50;7.20;;;;;;;;;;5021126;28;20044;-68
2022/04/24 12:02:24;;;;;;;10.88;7.75;;;;;;;;;;5023862;28;20263;-67
2022/04/24 12:04:50;;;;;;;9.30;7.68;;;;;;;;;;5021965;28;20049;-68
2022/04/24 12:07:16;;;;;;;9.35;7.50;;;;;;;;;;5022219;28;20045;-68
2022/04/24 12:09:41;;;;;;;9.80;7.78;;;;;;;;;;5022522;28;20049;-70
2022/04/24 12:12:08;;;;;;;8.45;7.05;;;;;;;;;;5024043;28;20025;-69
2022/04/24 12:14:34;;;;;;;12.65;7.60;;;;;;;;;;5022221;28;20021;-69
2022/04/24 12:17:05;;;;;;;8.48;6.82;;;;;;;;;;5018802;28;20022;-72
2022/04/24 12:19:31;;;;;;;10.27;7.10;;;;;;;;;;5021139;28;20017;-70
2022/04/24 12:22:03;;;;;;;9.63;7.40;;;;;;;;;;5019103;28;20032;-71
2022/04/24 12:24:37;;;;;;;8.63;7.43;;;;;;;;;;5023377;28;20021;-72
2022/04/24 12:27:03;;;;;;;8.93;7.63;;;;;;;;;;5020085;28;20030;-72
2022/04/24 12:29:37;;;;;;;9.75;7.32;;;;;;;;;;5020413;28;20025;-71
2022/04/24 12:32:06;;;;;;;10.10;6.45;;;;;;;;;;5022050;28;20021;-71
2022/04/24 12:34:38;;;;;;;9.93;7.20;;;;;;;;;;5023112;28;20025;-72
2022/04/24 12:37:03;;;;;;;9.75;7.55;;;;;;;;;;5023247;28;20626;-69
2022/04/24 12:39:29;;;;;;;11.32;7.95;;;;;;;;;;5022828;28;20036;-72
2022/04/24 12:41:54;;;;;;;10.10;7.78;;;;;;;;;;5022561;28;20144;-68
2022/04/24 12:44:20;;;;;;;9.35;7.60;;;;;;;;;;5018918;28;20066;-69
2022/04/24 12:46:46;;;;;;;8.53;7.30;;;;;;;;;;5023618;28;20014;-68
2022/04/24 12:49:13;;;;;;;9.70;6.93;;;;;;;;;;5027851;28;20403;-70
2022/04/24 12:51:38;;;;;;;9.77;6.88;;;;;;;;;;5019926;28;20503;-69
2022/04/24 12:54:03;;;;;;;9.00;7.43;;;;;;;;;;5022541;28;20031;-69
2022/04/24 12:56:29;;;;;;;8.73;6.93;;;;;;;;;;5022582;28;20041;-68
2022/04/24 12:58:54;;;;;;;8.98;6.68;;;;;;;;;;5023744;28;20137;-72
2022/04/24 13:01:21;;;;;;;9.35;6.85;;;;;;;;;;5020627;28;20018;-69
2022/04/24 13:03:46;;;;;;;7.45;6.43;;;;;;;;;;5023069;28;20116;-69
2022/04/24 13:06:12;;;;;;;6.72;6.03;;;;;;;;;;5022677;28;20101;-69
2022/04/24 13:08:38;;;;;;;10.05;6.85;;;;;;;;;;5004572;28;20435;-71
2022/04/24 13:11:03;;;;;;;7.87;7.00;;;;;;;;;;5023779;28;20033;-69
2022/04/24 13:13:29;;;;;;;10.40;6.13;;;;;;;;;;5019883;28;20824;-71
2022/04/24 13:18:38;;;;;;;7.72;6.20;;;;;;;;;;5022076;28;20032;-69
2022/04/24 13:21:04;;;;;;;7.57;6.78;;;;;;;;;;5003102;28;20629;-69
2022/04/24 13:23:30;;;;;;;6.50;5.85;;;;;;;;;;5020186;28;20397;-69
2022/04/24 13:25:55;;;;;;;7.00;6.30;;;;;;;;;;5020969;28;20021;-68
2022/04/24 13:28:26;;;;;;;9.18;5.90;;;;;;;;;;5021473;28;20022;-69
2022/04/24 13:30:51;;;;;;;8.40;6.40;;;;;;;;;;5020762;28;20034;-69
2022/04/24 13:33:17;;;;;;;10.60;6.20;;;;;;;;;;5020597;28;20033;-68
2022/04/24 13:35:43;;;;;;;10.63;6.15;;;;;;;;;;5024320;28;20381;-68
2022/04/24 13:38:18;;;;;;;6.88;5.88;;;;;;;;;;5003147;28;20095;-71
2022/04/24 13:40:43;;;;;;;8.48;5.40;;;;;;;;;;5023007;28;20037;-68
2022/04/24 13:43:09;;;;;;;6.63;5.80;;;;;;;;;;5020846;28;20033;-70
2022/04/24 13:45:35;;;;;;;6.57;5.30;;;;;;;;;;5022101;28;20033;-69
2022/04/24 13:48:01;;;;;;;6.05;5.25;;;;;;;;;;5021983;28;20029;-69
2022/04/24 13:50:26;;;;;;;6.40;5.75;;;;;;;;;;5026718;28;20039;-68
2022/04/24 13:52:51;;;;;;;8.43;5.67;;;;;;;;;;5022956;28;20072;-69
2022/04/24 13:55:17;;;;;;;6.27;5.47;;;;;;;;;;5022284;28;20263;-68
2022/04/24 13:57:42;;;;;;;7.88;6.18;;;;;;;;;;5022489;28;20023;-69
2022/04/24 14:00:09;;;;;;;5.93;5.20;;;;;;;;;;5022227;28;20109;-69
2022/04/24 14:02:35;;;;;;;6.03;5.47;;;;;;;;;;5021347;28;20025;-68
2022/04/24 14:05:01;;;;;;;7.03;5.23;;;;;;;;;;5018275;28;20443;-69
2022/04/24 14:07:26;;;;;;;7.25;5.57;;;;;;;;;;5001913;28;20390;-69
2022/04/24 14:09:51;;;;;;;5.73;4.57;;;;;;;;;;5022719;28;20501;-69
2022/04/24 14:12:17;;;;;;;12.30;5.88;;;;;;;;;;5021993;28;20043;-67
2022/04/24 14:14:42;;;;;;;6.72;4.95;;;;;;;;;;5021612;28;20029;-68
2022/04/24 14:17:07;;;;;;;8.98;5.72;;;;;;;;;;5019626;28;20356;-69
2022/04/24 14:19:34;;;;;;;6.15;5.15;;;;;;;;;;5019835;28;20021;-69
2022/04/24 14:22:00;;;;;;;9.00;5.55;;;;;;;;;;5017808;28;20022;-70
2022/04/24 14:24:25;;;;;;;5.68;5.00;;;;;;;;;;5020598;28;20029;-70
2022/04/24 14:26:53;;;;;;;6.57;5.10;;;;;;;;;;5025091;28;20127;-70
2022/04/24 14:29:19;;;;;;;7.50;5.63;;;;;;;;;;5026313;28;20087;-70
2022/04/24 14:31:46;;;;;;;5.78;5.15;;;;;;;;;;5023912;28;20388;-68
2022/04/24 14:34:11;;;;;;;5.93;5.28;;;;;;;;;;5025135;28;20499;-69
2022/04/24 14:36:36;;;;;;;6.03;5.10;;;;;;;;;;5021397;28;20051;-68
2022/04/24 14:39:02;;;;;;;8.10;4.82;;;;;;;;;;5017365;28;20040;-70